createdAt,value
2018-02-13T00:02:14.894Z,25.12
2018-02-13T00:04:41.535Z,29.30
2018-02-13T00:07:08.211Z,26.37
2018-02-13T00:09:34.872Z,26.00
2018-02-13T00:12:01.531Z,24.40
2018-02-13T00:14:28.167Z,25.05
2018-02-13T00:16:54.843Z,31.50
2018-02-13T00:19:21.481Z,27.27
2018-02-13T00:21:48.137Z,29.75
2018-02-13T00:24:14.773Z,25.65
2018-02-13T00:26:41.432Z,23.67
2018-02-13T00:29:08.078Z,27.30
2018-02-13T00:31:34.714Z,26.40
2018-02-13T00:34:01.376Z,25.60
2018-02-13T00:36:28.034Z,31.55
2018-02-13T00:38:54.694Z,23.77
2018-02-13T00:41:21.343Z,26.30
2018-02-13T00:43:48.011Z,25.83
2018-02-13T00:46:14.645Z,30.70
2018-02-13T00:48:41.323Z,28.80
2018-02-13T00:51:08.014Z,28.58
2018-02-13T00:53:34.653Z,26.65
2018-02-13T00:56:01.304Z,26.65
2018-02-13T00:58:27.933Z,33.05
2018-02-13T01:00:54.590Z,27.55
2018-02-13T01:03:21.246Z,31.67
2018-02-13T01:05:47.887Z,30.10
2018-02-13T01:08:14.542Z,26.23
2018-02-13T01:10:41.194Z,34.58
2018-02-13T01:13:07.838Z,31.10
2018-02-13T01:15:34.475Z,29.15
2018-02-13T01:18:01.138Z,23.80
2018-02-13T01:20:27.805Z,31.23
2018-02-13T01:22:54.454Z,32.30
2018-02-13T01:25:21.122Z,29.42
2018-02-13T01:27:47.781Z,31.62
2018-02-13T01:30:14.461Z,25.83
2018-02-13T01:32:41.095Z,31.83
2018-02-13T01:35:07.781Z,31.12
2018-02-13T01:37:34.474Z,28.45
2018-02-13T01:40:01.110Z,31.98
2018-02-13T01:42:27.755Z,30.35
2018-02-13T01:44:54.398Z,38.17
2018-02-13T01:47:21.038Z,31.25
2018-02-13T01:49:47.699Z,31.35
2018-02-13T01:52:14.375Z,27.30
2018-02-13T01:54:41.016Z,39.10
2018-02-13T01:57:07.661Z,35.40
2018-02-13T01:59:34.294Z,33.42
2018-02-13T02:02:00.932Z,36.70
2018-02-13T02:04:27.575Z,29.87
2018-02-13T02:06:54.217Z,35.75
2018-02-13T02:09:20.860Z,35.35
2018-02-13T02:11:47.508Z,27.25
2018-02-13T02:14:14.144Z,32.40
2018-02-13T02:16:40.807Z,37.15
2018-02-13T02:19:07.454Z,33.72
2018-02-13T02:21:34.107Z,34.88
2018-02-13T02:24:00.755Z,30.25
2018-02-13T02:26:27.425Z,34.53
2018-02-13T02:28:54.078Z,39.38
2018-02-13T02:31:20.728Z,34.33
2018-02-13T02:33:47.366Z,37.03
2018-02-13T02:36:14.027Z,34.75
2018-02-13T02:38:40.668Z,47.75
2018-02-13T02:41:07.323Z,39.25
2018-02-13T02:43:33.972Z,43.70
2018-02-13T02:46:00.612Z,41.40
2018-02-13T02:48:27.299Z,34.10
2018-02-13T02:50:53.935Z,36.08
2018-02-13T02:53:20.649Z,31.98
2018-02-13T02:55:47.287Z,44.08
2018-02-13T02:58:13.922Z,36.72
2018-02-13T03:00:40.562Z,43.58
2018-02-13T03:03:07.196Z,37.25
2018-02-13T03:05:33.863Z,41.50
2018-02-13T03:08:00.547Z,45.22
2018-02-13T03:10:27.188Z,41.53
2018-02-13T03:12:53.922Z,40.50
2018-02-13T03:15:20.535Z,46.22
2018-02-13T03:17:47.190Z,41.97
2018-02-13T03:20:13.837Z,42.85
2018-02-13T03:22:40.474Z,41.35
2018-02-13T03:25:07.115Z,41.60
2018-02-13T03:27:33.754Z,45.80
2018-02-13T03:30:00.391Z,38.90
2018-02-13T03:32:27.025Z,47.05
2018-02-13T03:34:53.686Z,41.72
2018-02-13T03:37:20.326Z,46.78
2018-02-13T03:39:46.958Z,44.00
2018-02-13T03:42:13.597Z,43.85
2018-02-13T03:44:40.255Z,46.25
2018-02-13T03:47:06.892Z,44.85
2018-02-13T03:49:33.590Z,47.80
2018-02-13T03:52:00.225Z,37.75
2018-02-13T03:54:26.874Z,45.47
2018-02-13T03:56:53.526Z,42.45
2018-02-13T03:59:20.171Z,43.53
2018-02-13T04:01:46.809Z,43.47
2018-02-13T04:04:13.487Z,42.20
2018-02-13T04:06:40.122Z,50.42
2018-02-13T04:09:07.191Z,48.95
2018-02-13T04:11:33.869Z,44.17
2018-02-13T04:14:00.506Z,41.95
2018-02-13T04:16:27.167Z,40.28
2018-02-13T04:18:53.838Z,47.70
2018-02-13T04:21:20.499Z,41.63
2018-02-13T04:23:47.143Z,41.92
2018-02-13T04:26:13.800Z,37.97
2018-02-13T04:28:40.432Z,40.05
2018-02-13T04:31:07.099Z,41.85
2018-02-13T04:33:33.767Z,43.53
2018-02-13T04:36:00.425Z,38.75
2018-02-13T04:38:27.072Z,40.92
2018-02-13T04:40:53.736Z,40.70
2018-02-13T04:43:20.376Z,39.70
2018-02-13T04:45:47.026Z,39.72
2018-02-13T04:48:13.671Z,43.00
2018-02-13T04:50:40.320Z,38.33
2018-02-13T04:53:06.956Z,39.08
2018-02-13T04:55:33.595Z,39.28
2018-02-13T04:58:00.232Z,44.95
2018-02-13T05:00:26.871Z,45.53
2018-02-13T05:02:53.523Z,45.90
2018-02-13T05:05:20.185Z,42.03
2018-02-13T05:07:46.831Z,40.65
2018-02-13T05:10:13.471Z,40.70
2018-02-13T05:12:40.121Z,38.83
2018-02-13T05:15:06.764Z,44.78
2018-02-13T05:17:33.439Z,36.40
2018-02-13T05:20:00.094Z,40.90
2018-02-13T05:22:26.772Z,43.22
2018-02-13T05:24:53.500Z,43.92
2018-02-13T05:27:20.241Z,38.50
2018-02-13T05:29:46.879Z,38.60
2018-02-13T05:32:13.527Z,39.88
2018-02-13T05:34:40.166Z,41.47
2018-02-13T05:37:06.958Z,34.88
2018-02-13T05:39:33.625Z,43.83
2018-02-13T05:42:00.263Z,39.80
2018-02-13T05:44:26.904Z,35.50
2018-02-13T05:46:53.561Z,44.58
2018-02-13T05:49:20.193Z,42.33
2018-02-13T05:51:46.840Z,38.90
2018-02-13T05:54:13.480Z,38.88
2018-02-13T05:56:40.122Z,38.55
2018-02-13T05:59:06.858Z,35.85
2018-02-13T06:01:33.599Z,41.65
2018-02-13T06:04:00.256Z,40.65
2018-02-13T06:06:26.895Z,40.35
2018-02-13T06:08:53.555Z,34.55
2018-02-13T06:11:20.196Z,39.13
2018-02-13T06:13:46.850Z,38.97
2018-02-13T06:16:13.493Z,35.97
2018-02-13T06:18:40.172Z,33.05
2018-02-13T06:21:06.808Z,35.05
2018-02-13T06:23:33.464Z,40.30
2018-02-13T06:26:00.134Z,35.80
2018-02-13T06:28:26.784Z,35.08
2018-02-13T06:30:53.433Z,38.13
2018-02-13T06:33:20.072Z,42.45
2018-02-13T06:35:47.046Z,38.40
2018-02-13T06:38:13.693Z,36.67
2018-02-13T06:40:40.335Z,37.65
2018-02-13T06:43:06.982Z,37.92
2018-02-13T06:45:33.622Z,34.38
2018-02-13T06:48:00.259Z,32.55
2018-02-13T06:50:26.896Z,34.55
2018-02-13T06:52:53.548Z,30.95
2018-02-13T06:55:20.190Z,33.55
2018-02-13T06:57:46.832Z,37.90
2018-02-13T07:00:13.500Z,32.65
2018-02-13T07:02:40.136Z,31.02
2018-02-13T07:05:06.839Z,33.45
2018-02-13T07:07:33.496Z,34.55
2018-02-13T07:10:00.154Z,30.60
2018-02-13T07:12:26.809Z,29.02
2018-02-13T07:14:53.463Z,27.55
2018-02-13T07:17:20.098Z,26.95
2018-02-13T07:19:46.752Z,28.27
2018-02-13T07:22:13.395Z,27.98
2018-02-13T07:24:40.042Z,25.02
2018-02-13T07:27:06.711Z,24.63
2018-02-13T07:29:34.424Z,26.25
2018-02-13T07:32:01.068Z,29.87
2018-02-13T07:34:27.705Z,26.42
2018-02-13T07:36:54.345Z,25.15
2018-02-13T07:39:20.992Z,28.23
2018-02-13T07:45:17.581Z,26.35
2018-02-13T07:47:44.241Z,25.77
2018-02-13T07:50:10.882Z,32.10
2018-02-13T07:52:37.541Z,26.02
2018-02-13T07:55:04.188Z,26.08
2018-02-13T07:57:30.850Z,24.95
2018-02-13T07:59:57.574Z,24.50
2018-02-13T08:02:24.227Z,26.75
2018-02-13T08:04:50.872Z,24.90
2018-02-13T08:07:17.535Z,30.40
2018-02-13T08:09:44.330Z,25.80
2018-02-13T08:12:10.973Z,24.50
2018-02-13T08:14:37.681Z,25.05
2018-02-13T08:17:04.352Z,20.10
2018-02-13T08:19:30.982Z,21.42
2018-02-13T08:21:57.632Z,24.10
2018-02-13T08:24:24.323Z,26.48
2018-02-13T08:26:50.936Z,20.40
2018-02-13T08:29:17.593Z,22.98
2018-02-13T08:31:44.231Z,26.05
2018-02-13T08:34:10.891Z,19.62
2018-02-13T08:36:37.528Z,16.27
2018-02-13T08:39:04.176Z,22.48
2018-02-13T08:41:30.812Z,17.75
2018-02-13T08:43:57.473Z,19.48
2018-02-13T08:46:24.143Z,20.98
2018-02-13T08:48:50.787Z,18.30
2018-02-13T08:51:17.426Z,20.08
2018-02-13T08:53:44.069Z,17.08
2018-02-13T08:56:10.735Z,16.58
2018-02-13T08:58:37.375Z,17.70
2018-02-13T09:01:04.016Z,18.17
2018-02-13T09:03:30.655Z,16.25
2018-02-13T09:05:57.308Z,16.92
2018-02-13T09:08:23.967Z,16.10
2018-02-13T09:10:50.605Z,14.90
2018-02-13T09:13:17.237Z,16.60
2018-02-13T09:15:43.890Z,17.90
2018-02-13T09:18:10.540Z,17.47
2018-02-13T09:20:37.339Z,16.80
2018-02-13T09:23:03.995Z,17.20
2018-02-13T09:25:30.738Z,17.07
2018-02-13T09:27:57.375Z,14.77
2018-02-13T09:30:24.031Z,16.33
2018-02-13T09:32:50.672Z,16.50
2018-02-13T09:35:17.341Z,16.30
2018-02-13T09:37:44.000Z,15.73
2018-02-13T09:40:10.688Z,16.07
2018-02-13T09:42:37.336Z,15.17
2018-02-13T09:45:04.076Z,14.23
2018-02-13T09:47:30.719Z,17.00
2018-02-13T09:49:57.356Z,16.13
2018-02-13T09:52:24.000Z,16.80
2018-02-13T09:54:50.723Z,16.33
2018-02-13T09:57:17.370Z,16.90
2018-02-13T09:59:44.016Z,15.33
2018-02-13T10:02:10.675Z,16.53
2018-02-13T10:04:37.365Z,16.60
2018-02-13T10:07:03.972Z,16.10
2018-02-13T10:09:30.611Z,16.17
2018-02-13T10:11:57.272Z,15.23
2018-02-13T10:14:23.927Z,14.93
2018-02-13T10:16:50.576Z,15.43
2018-02-13T10:19:17.238Z,13.93
2018-02-13T10:21:43.908Z,15.60
2018-02-13T10:24:10.547Z,15.13
2018-02-13T10:26:37.231Z,14.10
2018-02-13T10:29:04.252Z,14.80
2018-02-13T10:31:30.904Z,14.13
2018-02-13T10:33:57.548Z,14.33
2018-02-13T10:36:24.198Z,14.70
2018-02-13T10:38:50.853Z,15.77
2018-02-13T10:41:17.492Z,14.40
2018-02-13T10:43:44.132Z,14.10
2018-02-13T10:46:10.768Z,15.63
2018-02-13T10:48:37.414Z,14.77
2018-02-13T10:51:04.055Z,15.07
2018-02-13T10:53:30.699Z,16.10
2018-02-13T10:55:57.324Z,15.30
2018-02-13T10:58:23.959Z,15.07
2018-02-13T11:00:56.364Z,14.10
2018-02-13T11:03:22.999Z,14.43
2018-02-13T11:05:49.634Z,14.53
2018-02-13T11:08:16.309Z,13.00
2018-02-13T11:10:42.950Z,13.83
2018-02-13T11:13:09.606Z,14.03
2018-02-13T11:15:36.242Z,12.43
2018-02-13T11:18:02.969Z,14.47
2018-02-13T11:20:29.609Z,14.53
2018-02-13T11:22:56.625Z,14.33
2018-02-13T11:25:23.272Z,15.77
2018-02-13T11:27:49.908Z,16.87
2018-02-13T11:30:16.563Z,16.27
2018-02-13T11:32:43.198Z,15.83
2018-02-13T11:35:09.934Z,14.60
2018-02-13T11:37:36.823Z,15.00
2018-02-13T11:40:03.639Z,15.40
2018-02-13T11:42:30.293Z,15.60
2018-02-13T11:44:57.155Z,15.47
2018-02-13T11:47:23.858Z,15.43
2018-02-13T11:49:50.909Z,14.70
2018-02-13T11:52:17.726Z,17.90
2018-02-13T11:54:44.624Z,15.68
2018-02-13T11:57:11.262Z,15.07
2018-02-13T11:59:38.249Z,15.32
2018-02-13T12:02:05.163Z,15.10
2018-02-13T12:04:31.812Z,15.30
2018-02-13T12:06:58.621Z,16.65
2018-02-13T12:09:25.368Z,12.52
2018-02-13T12:11:52.344Z,14.43
2018-02-13T12:14:19.202Z,12.30
2018-02-13T12:16:45.919Z,15.25
2018-02-13T12:19:12.650Z,13.73
2018-02-13T12:21:39.254Z,11.95
2018-02-13T12:24:05.913Z,12.82
2018-02-13T12:26:32.559Z,12.00
2018-02-13T12:28:59.207Z,15.65
2018-02-13T12:31:25.852Z,12.35
2018-02-13T12:33:52.489Z,13.13
2018-02-13T12:36:19.125Z,14.55
2018-02-13T12:38:45.747Z,8.23
2018-02-13T12:41:12.399Z,12.68
2018-02-13T12:43:39.036Z,10.50
2018-02-13T12:46:05.659Z,9.90
2018-02-13T12:48:32.285Z,10.30
2018-02-13T12:50:58.918Z,9.95
2018-02-13T12:53:25.547Z,7.93
2018-02-13T12:55:52.188Z,7.37
2018-02-13T12:58:19.184Z,8.45
2018-02-13T13:00:45.834Z,8.25
2018-02-13T13:03:12.470Z,10.13
2018-02-13T13:05:39.117Z,7.85
2018-02-13T13:08:05.747Z,9.35
2018-02-13T13:10:32.391Z,8.70
2018-02-13T13:12:59.031Z,10.90
2018-02-13T13:15:25.692Z,11.63
2018-02-13T13:17:52.323Z,10.88
2018-02-13T13:20:18.969Z,8.65
2018-02-13T13:22:45.605Z,10.85
2018-02-13T13:25:12.244Z,7.05
2018-02-13T13:27:38.876Z,10.90
2018-02-13T13:30:06.312Z,8.95
2018-02-13T13:32:32.964Z,9.48
2018-02-13T13:34:59.608Z,10.85
2018-02-13T13:37:26.246Z,8.40
2018-02-13T13:39:52.897Z,8.25
2018-02-13T13:42:19.525Z,11.93
2018-02-13T13:44:46.157Z,9.38
2018-02-13T13:47:12.798Z,8.90
2018-02-13T13:49:39.473Z,10.82
2018-02-13T13:52:06.386Z,7.87
2018-02-13T13:54:33.090Z,8.68
2018-02-13T13:56:59.736Z,8.75
2018-02-13T13:59:26.390Z,9.85
2018-02-13T14:01:53.035Z,11.68
2018-02-13T14:04:19.670Z,9.27
2018-02-13T14:06:46.327Z,10.98
2018-02-13T14:09:13.001Z,10.10
2018-02-13T14:11:39.679Z,8.65
2018-02-13T14:14:06.310Z,7.55
2018-02-13T14:16:32.951Z,16.70
2018-02-13T14:19:01.294Z,8.10
2018-02-13T14:21:27.927Z,8.90
2018-02-13T14:23:54.557Z,8.75
2018-02-13T14:26:21.179Z,6.95
2018-02-13T14:28:47.809Z,6.43
2018-02-13T14:31:14.440Z,9.88
2018-02-13T14:33:41.072Z,9.65
2018-02-13T14:36:07.707Z,6.95
2018-02-13T14:38:34.343Z,8.68
2018-02-13T14:41:00.982Z,10.60
2018-02-13T14:43:27.628Z,7.93
2018-02-13T14:45:54.274Z,7.53
2018-02-13T14:48:20.935Z,6.45
2018-02-13T14:50:47.554Z,6.07
2018-02-13T14:53:14.211Z,7.35
2018-02-13T14:55:40.827Z,8.95
2018-02-13T14:58:07.467Z,7.55
2018-02-13T15:00:34.134Z,6.62
2018-02-13T15:03:00.767Z,6.32
2018-02-13T15:05:27.400Z,9.57
2018-02-13T15:07:54.043Z,6.10
2018-02-13T15:10:20.679Z,6.82
2018-02-13T15:12:47.322Z,9.63
2018-02-13T15:15:29.775Z,9.23
2018-02-13T15:17:57.191Z,8.50
2018-02-13T15:20:23.878Z,11.73
2018-02-13T15:22:50.519Z,6.97
2018-02-13T15:25:17.223Z,10.23
2018-02-13T15:27:43.878Z,7.35
2018-02-13T15:30:10.555Z,8.27
2018-02-13T15:32:37.991Z,8.57
2018-02-13T15:35:04.649Z,7.22
2018-02-13T15:37:31.289Z,6.97
2018-02-13T15:39:57.991Z,8.20
2018-02-13T15:42:24.615Z,9.52
2018-02-13T15:44:51.272Z,8.27
2018-02-13T15:47:17.902Z,7.45
2018-02-13T15:49:44.550Z,8.00
2018-02-13T15:52:11.186Z,10.93
2018-02-13T15:54:37.841Z,8.75
2018-02-13T15:57:04.469Z,8.35
2018-02-13T15:59:31.118Z,10.73
2018-02-13T16:01:57.771Z,8.90
2018-02-13T16:04:24.427Z,10.52
2018-02-13T16:06:51.078Z,10.27
2018-02-13T16:09:17.710Z,8.85
2018-02-13T16:11:44.332Z,11.70
2018-02-13T16:14:10.966Z,10.55
2018-02-13T16:16:37.659Z,8.90
2018-02-13T16:19:04.294Z,10.63
2018-02-13T16:21:30.956Z,8.63
2018-02-13T16:23:57.590Z,10.77
2018-02-13T16:26:24.241Z,9.32
2018-02-13T16:28:50.874Z,9.57
2018-02-13T16:31:17.529Z,12.82
2018-02-13T16:33:44.429Z,12.30
2018-02-13T16:36:11.297Z,12.35
2018-02-13T16:38:37.975Z,10.45
2018-02-13T16:41:04.895Z,9.52
2018-02-13T16:43:31.749Z,9.75
2018-02-13T16:45:58.402Z,11.23
2018-02-13T16:48:25.044Z,11.98
2018-02-13T16:50:51.691Z,12.75
2018-02-13T16:53:18.325Z,10.27
2018-02-13T16:55:44.995Z,15.27
2018-02-13T16:58:11.651Z,15.55
2018-02-13T17:00:38.299Z,22.35
2018-02-13T17:03:04.949Z,23.52
2018-02-13T17:05:31.730Z,13.95
2018-02-13T17:07:58.374Z,15.73
2018-02-13T17:10:25.015Z,16.25
2018-02-13T17:12:51.641Z,14.65
2018-02-13T17:15:18.513Z,12.25
2018-02-13T17:17:45.352Z,9.63
2018-02-13T17:20:12.074Z,13.55
2018-02-13T17:22:38.928Z,14.25
2018-02-13T17:25:05.701Z,10.93
2018-02-13T17:27:32.382Z,12.65
2018-02-13T17:29:59.156Z,11.35
2018-02-13T17:32:26.461Z,10.38
2018-02-13T17:34:53.212Z,12.13
2018-02-13T17:37:20.011Z,9.75
2018-02-13T17:39:46.764Z,11.48
2018-02-13T17:42:13.496Z,16.42
2018-02-13T17:44:40.235Z,8.43
2018-02-13T17:47:06.941Z,11.45
2018-02-13T17:49:33.612Z,11.30
2018-02-13T17:52:00.256Z,10.38
2018-02-13T17:54:26.898Z,11.10
2018-02-13T17:56:53.540Z,12.88
2018-02-13T17:59:20.302Z,11.52
2018-02-13T18:01:47.058Z,12.70
2018-02-13T18:04:13.703Z,10.55
2018-02-13T18:06:40.337Z,17.08
2018-02-13T18:09:06.960Z,11.90
2018-02-13T18:11:33.587Z,11.75
2018-02-13T18:14:00.226Z,13.95
2018-02-13T18:16:26.870Z,11.57
2018-02-13T18:18:53.501Z,11.77
2018-02-13T18:21:20.146Z,13.80
2018-02-13T18:23:46.785Z,16.85
2018-02-13T18:26:13.430Z,12.60
2018-02-13T18:28:40.076Z,14.90
2018-02-13T18:31:06.714Z,16.48
2018-02-13T18:33:33.359Z,12.65
2018-02-13T18:35:59.997Z,12.90
2018-02-13T18:38:26.687Z,11.55
2018-02-13T18:40:53.392Z,13.70
2018-02-13T18:43:20.155Z,11.50
2018-02-13T18:45:46.783Z,13.80
2018-02-13T18:48:13.443Z,13.50
2018-02-13T18:50:40.083Z,12.80
2018-02-13T18:55:33.392Z,13.65
2018-02-13T18:58:00.035Z,13.82
2018-02-13T19:00:26.675Z,18.02
2018-02-13T19:02:53.306Z,17.83
2018-02-13T19:05:19.957Z,13.95
2018-02-13T19:07:46.589Z,12.05
2018-02-13T19:10:13.277Z,11.95
2018-02-13T19:12:39.920Z,12.20
2018-02-13T19:15:06.582Z,16.02
2018-02-13T19:17:33.223Z,14.77
2018-02-13T19:19:59.848Z,16.75
2018-02-13T19:22:26.495Z,14.98
2018-02-13T19:24:53.153Z,12.55
2018-02-13T19:27:19.802Z,13.45
2018-02-13T19:29:46.450Z,15.85
2018-02-13T19:32:13.102Z,13.80
2018-02-13T19:34:39.764Z,12.95
2018-02-13T19:37:06.410Z,14.90
2018-02-13T19:39:33.101Z,15.88
2018-02-13T19:41:59.747Z,14.25
2018-02-13T19:44:26.393Z,16.77
2018-02-13T19:46:53.075Z,14.50
2018-02-13T19:49:19.710Z,17.00
2018-02-13T19:51:46.352Z,14.00
2018-02-13T19:54:13.015Z,11.80
2018-02-13T19:56:39.667Z,14.15
2018-02-13T19:59:06.302Z,16.37
2018-02-13T20:01:32.943Z,17.10
2018-02-13T20:03:59.579Z,13.55
2018-02-13T20:06:26.209Z,14.07
2018-02-13T20:08:52.885Z,13.30
2018-02-13T20:11:19.534Z,16.23
2018-02-13T20:13:46.205Z,12.85
2018-02-13T20:16:12.836Z,12.77
2018-02-13T20:18:39.477Z,10.15
2018-02-13T20:21:06.115Z,14.35
2018-02-13T20:23:32.762Z,12.95
2018-02-13T20:25:59.507Z,8.57
2018-02-13T20:28:26.156Z,9.80
2018-02-13T20:30:52.851Z,14.63
2018-02-13T20:33:19.535Z,11.00
2018-02-13T20:35:46.176Z,14.95
2018-02-13T20:38:12.840Z,13.00
2018-02-13T20:40:39.484Z,13.73
2018-02-13T20:43:06.142Z,18.55
2018-02-13T20:45:32.787Z,13.55
2018-02-13T20:47:59.471Z,10.55
2018-02-13T20:50:26.113Z,9.90
2018-02-13T20:52:52.776Z,11.75
2018-02-13T20:55:19.415Z,10.38
2018-02-13T20:57:46.057Z,9.00
2018-02-13T21:00:12.712Z,9.55
2018-02-13T21:02:39.437Z,8.50
2018-02-13T21:05:06.104Z,11.18
2018-02-13T21:07:32.774Z,10.02
2018-02-13T21:09:59.678Z,10.18
2018-02-13T21:12:26.616Z,13.02
2018-02-13T21:14:53.672Z,8.43
2018-02-13T21:17:20.390Z,8.90
2018-02-13T21:19:47.056Z,9.70
2018-02-13T21:22:13.703Z,8.95
2018-02-13T21:24:40.410Z,12.48
2018-02-13T21:27:07.077Z,8.50
2018-02-13T21:29:33.708Z,7.55
2018-02-13T21:32:00.347Z,7.75
2018-02-13T21:34:27.011Z,8.73
2018-02-13T21:36:53.644Z,7.05
2018-02-13T21:39:20.325Z,8.60
2018-02-13T21:41:47.008Z,9.98
2018-02-13T21:44:13.660Z,9.27
2018-02-13T21:46:40.335Z,11.00
2018-02-13T21:49:06.994Z,9.13
2018-02-13T21:51:33.628Z,9.00
2018-02-13T21:54:00.275Z,8.73
2018-02-13T21:56:26.909Z,7.80
2018-02-13T21:58:53.560Z,9.80
2018-02-13T22:01:20.219Z,12.75
2018-02-13T22:03:46.872Z,8.98
2018-02-13T22:06:13.721Z,7.85
2018-02-13T22:08:40.485Z,11.77
2018-02-13T22:11:07.213Z,8.45
2018-02-13T22:13:33.963Z,9.25
2018-02-13T22:16:00.740Z,7.62
2018-02-13T22:18:27.418Z,8.93
2018-02-13T22:20:54.066Z,11.40
2018-02-13T22:23:20.695Z,12.75
2018-02-13T22:25:47.325Z,8.07
2018-02-13T22:28:13.963Z,10.52
2018-02-13T22:30:40.614Z,9.32
2018-02-13T22:33:07.503Z,7.90
2018-02-13T22:35:34.287Z,10.57
2018-02-13T22:38:00.989Z,14.52
2018-02-13T22:40:27.690Z,9.18
2018-02-13T22:42:54.558Z,8.30
2018-02-13T22:45:21.541Z,7.18
2018-02-13T22:47:48.355Z,11.98
2018-02-13T22:50:15.023Z,11.63
2018-02-13T22:52:41.680Z,7.93
2018-02-13T22:55:08.430Z,10.65
2018-02-13T22:57:35.361Z,8.55
2018-02-13T23:00:01.999Z,8.70
2018-02-13T23:02:28.643Z,9.38
2018-02-13T23:04:55.288Z,8.07
2018-02-13T23:07:21.914Z,8.40
2018-02-13T23:09:48.557Z,8.05
2018-02-13T23:12:15.187Z,7.53
2018-02-13T23:14:41.816Z,11.68
2018-02-13T23:17:08.444Z,8.35
2018-02-13T23:19:35.075Z,9.40
2018-02-13T23:22:01.695Z,7.75
2018-02-13T23:24:28.354Z,10.15
2018-02-13T23:26:55.039Z,11.20
2018-02-13T23:29:21.672Z,11.15
2018-02-13T23:31:48.292Z,8.93
2018-02-13T23:34:14.915Z,8.40
2018-02-13T23:36:41.549Z,11.85
2018-02-13T23:39:08.179Z,8.50
2018-02-13T23:41:34.815Z,9.02
2018-02-13T23:44:01.459Z,10.77
2018-02-13T23:46:28.087Z,7.80
2018-02-13T23:48:54.722Z,8.30
2018-02-13T23:51:21.379Z,10.85
2018-02-13T23:53:48.037Z,11.60
2018-02-13T23:56:14.694Z,11.05
2018-02-13T23:58:41.345Z,11.15
